Time;durP1;ratioP1;P1;durP2;ratioP2;P2;SDS_P1;SDS_P2;PMS_P1;PMS_P2;Temp;Humidity;BMP_temperature;BMP_pressure;BME280_temperature;BME280_humidity;BME280_pressure;Samples;Min_cycle;Max_cycle;Signal;HPM_P1;HPM_P2
2021/11/10 00:02:03;;;;;;;3.28;3.17;;;;;;;2.73;100.00;102126.97;4383502;32;20613;-70
2021/11/10 00:04:29;;;;;;;3.15;3.05;;;;;;;2.57;100.00;102099.28;4381265;32;20099;-71
2021/11/10 00:06:54;;;;;;;3.30;3.20;;;;;;;2.65;100.00;102117.44;4381525;32;20483;-70
2021/11/10 00:09:19;;;;;;;3.00;2.90;;;;;;;2.58;100.00;102126.91;4381068;32;20363;-70
2021/11/10 00:11:45;;;;;;;4.82;4.62;;;;;;;1.28;99.84;101912.25;4380821;32;20183;-70
2021/11/10 00:14:10;;;;;;;3.40;3.30;;;;;;;2.49;100.00;102117.38;4394716;32;20061;-70
2021/11/10 00:16:35;;;;;;;4.05;3.90;;;;;;;1.52;100.00;101963.28;4382682;32;20096;-72
2021/11/10 00:19:01;;;;;;;3.10;3.00;;;;;;;2.34;100.00;102107.78;4408574;32;20071;-71
2021/11/10 00:21:26;;;;;;;3.10;3.00;;;;;;;2.19;100.00;102108.59;4394252;32;20075;-70
2021/11/10 00:23:52;;;;;;;4.10;3.90;;;;;;;2.30;100.00;102131.09;4382476;32;20534;-70
2021/11/10 00:26:18;;;;;;;3.00;2.90;;;;;;;2.26;100.00;102117.25;4395226;32;20432;-71
2021/11/10 00:28:44;;;;;;;4.60;4.40;;;;;;;1.77;100.00;102044.50;4383180;32;20587;-70
2021/11/10 00:31:09;;;;;;;3.20;3.10;;;;;;;2.25;100.00;102132.81;4388457;32;20081;-70
2021/11/10 00:33:35;;;;;;;3.75;3.60;;;;;;;2.26;100.00;102130.22;4382417;32;20077;-70
2021/11/10 00:36:00;;;;;;;3.25;3.15;;;;;;;2.27;100.00;102136.28;4380427;32;20276;-70
2021/11/10 00:38:25;;;;;;;3.72;3.53;;;;;;;2.23;100.00;102126.75;4379426;32;20153;-70
2021/11/10 00:40:51;;;;;;;4.43;4.22;;;;;;;2.26;100.00;102129.34;4393490;32;20079;-70
2021/11/10 00:43:16;;;;;;;3.85;3.65;;;;;;;1.84;100.00;102064.37;4381723;32;20521;-71
2021/11/10 00:45:42;;;;;;;5.32;5.12;;;;;;;2.23;100.00;102135.41;4379194;32;20122;-71
2021/11/10 00:48:10;;;;;;;3.25;3.15;;;;;;;0.94;100.00;101918.09;4382556;32;20335;-70
2021/11/10 00:50:35;;;;;;;3.92;3.78;;;;;;;1.64;100.00;102034.94;4388397;32;20612;-70
2021/11/10 00:53:03;;;;;;;3.10;3.00;;;;;;;2.17;100.00;102132.78;4384099;32;20087;-70
2021/11/10 00:55:29;;;;;;;3.20;3.10;;;;;;;2.19;100.00;102129.31;4393881;32;20179;-70
2021/11/10 00:57:54;;;;;;;3.47;3.37;;;;;;;2.17;100.00;102112.06;4388042;32;20084;-70
2021/11/10 01:00:19;;;;;;;3.20;3.10;;;;;;;2.21;100.00;102118.13;4382194;32;20056;-70
2021/11/10 01:02:45;;;;;;;4.75;4.45;;;;;;;2.19;100.00;102123.28;4379529;32;20081;-72
2021/11/10 01:05:11;;;;;;;2.90;2.80;;;;;;;2.10;100.00;102100.78;4384157;32;20064;-72
2021/11/10 01:07:37;;;;;;;3.58;3.45;;;;;;;2.21;100.00;102118.13;4384298;32;20303;-70
2021/11/10 01:10:03;;;;;;;3.00;2.90;;;;;;;2.05;100.00;102079.19;4405300;32;20837;-70
2021/11/10 01:12:29;;;;;;;2.90;2.80;;;;;;;2.21;100.00;102108.63;4387320;32;20122;-70
2021/11/10 01:14:54;;;;;;;3.00;2.90;;;;;;;1.82;100.00;102042.78;4386395;32;20478;-71
2021/11/10 01:17:19;;;;;;;3.10;3.00;;;;;;;2.18;100.00;102095.63;4383237;32;20591;-71
2021/11/10 01:19:45;;;;;;;4.70;4.50;;;;;;;2.15;100.00;102090.47;4381744;32;20092;-71
2021/11/10 01:22:10;;;;;;;3.10;3.00;;;;;;;1.88;100.00;102057.50;4380642;32;20073;-71
2021/11/10 01:24:36;;;;;;;3.37;3.28;;;;;;;1.97;100.00;102083.47;4394551;32;20095;-70
2021/11/10 01:27:01;;;;;;;3.30;3.20;;;;;;;1.54;100.00;102014.19;4381990;32;20070;-71
2021/11/10 01:29:26;;;;;;;3.20;3.10;;;;;;;1.79;100.00;102047.97;4394955;32;20669;-71
2021/11/10 01:31:52;;;;;;;4.15;3.95;;;;;;;1.97;100.00;102086.91;4378798;32;21093;-70
2021/11/10 01:34:18;;;;;;;3.10;3.00;;;;;;;1.92;100.00;102088.59;4393026;32;20383;-71
2021/11/10 01:36:44;;;;;;;4.78;4.55;;;;;;;0.36;100.00;101843.59;4400029;32;20542;-70
2021/11/10 01:39:09;;;;;;;3.20;3.10;;;;;;;1.83;100.00;102082.50;4393946;32;20150;-71
2021/11/10 01:41:43;;;;;;;3.22;3.12;;;;;;;1.80;100.00;102096.28;4383614;32;20669;-70
2021/11/10 01:44:25;;;;;;;3.25;3.15;;;;;;;1.76;100.00;102091.94;4393907;32;20091;-70
2021/11/10 01:46:51;;;;;;;3.95;3.75;;;;;;;1.73;100.00;102085.03;4393244;32;20611;-70
2021/11/10 01:49:17;;;;;;;3.08;2.97;;;;;;;1.71;100.00;102068.63;4392041;32;20570;-70
2021/11/10 01:51:49;;;;;;;4.95;4.65;;;;;;;1.14;100.00;101972.53;4391554;32;20381;-70
2021/11/10 01:54:15;;;;;;;3.35;3.25;;;;;;;0.88;100.00;101950.78;4393132;32;20065;-70
2021/11/10 01:56:40;;;;;;;4.47;4.28;;;;;;;1.62;100.00;102065.09;4410787;32;20070;-71
2021/11/10 01:59:06;;;;;;;2.90;2.80;;;;;;;1.57;100.00;102060.75;4371280;32;20120;-71
2021/11/10 02:01:31;;;;;;;3.00;2.90;;;;;;;1.54;100.00;102065.03;4382019;32;20537;-70
2021/11/10 02:03:57;;;;;;;3.20;3.10;;;;;;;1.51;100.00;102067.63;4375916;32;20335;-71
2021/11/10 02:06:23;;;;;;;2.85;2.75;;;;;;;1.47;100.00;102071.03;4383039;32;20088;-71
2021/11/10 02:08:49;;;;;;;4.65;4.45;;;;;;;1.43;100.00;102075.31;4382001;32;20077;-70
2021/11/10 02:11:14;;;;;;;3.33;3.22;;;;;;;1.42;100.00;102075.31;4394050;32;20087;-71
2021/11/10 02:13:40;;;;;;;4.22;4.03;;;;;;;1.38;100.00;102075.28;4376660;32;20081;-70
2021/11/10 02:16:05;;;;;;;3.00;2.90;;;;;;;1.39;100.00;102070.97;4365582;32;20426;-71
2021/11/10 02:18:31;;;;;;;3.20;3.10;;;;;;;1.40;100.00;102062.34;4383758;32;20084;-71
2021/11/10 02:20:56;;;;;;;2.60;2.50;;;;;;;1.41;100.00;102061.50;4365977;32;20077;-70
2021/11/10 02:23:22;;;;;;;2.90;2.80;;;;;;;1.42;100.00;102063.22;4391399;32;20088;-71
2021/11/10 02:25:47;;;;;;;4.55;4.35;;;;;;;1.45;100.00;102058.09;4386866;32;20673;-71
2021/11/10 02:28:12;;;;;;;3.47;3.30;;;;;;;1.49;100.00;102056.41;4379483;32;20089;-71
2021/11/10 02:30:38;;;;;;;3.95;3.78;;;;;;;1.54;100.00;102053.00;4392065;32;20681;-70
2021/11/10 02:33:04;;;;;;;2.92;2.83;;;;;;;1.42;100.00;102032.19;4379835;32;20079;-70
2021/11/10 02:35:30;;;;;;;2.90;2.80;;;;;;;1.57;100.00;102062.50;4381597;32;20053;-70
2021/11/10 02:38:01;;;;;;;3.80;3.62;;;;;;;1.44;100.00;102048.59;4375943;32;20166;-70
2021/11/10 02:40:26;;;;;;;3.20;3.10;;;;;;;1.56;100.00;102066.81;4390713;32;20080;-70
2021/11/10 02:42:52;;;;;;;4.55;4.35;;;;;;;1.60;100.00;102062.50;4377905;32;20589;-71
2021/11/10 02:45:17;;;;;;;3.05;2.95;;;;;;;1.44;100.00;102029.63;4369197;32;20184;-70
2021/11/10 02:47:43;;;;;;;4.53;4.32;;;;;;;1.62;100.00;102059.94;4378870;32;20525;-69
2021/11/10 02:50:09;;;;;;;3.05;2.95;;;;;;;1.61;100.00;102053.03;4381374;32;20163;-70
2021/11/10 02:52:34;;;;;;;3.05;2.95;;;;;;;1.62;100.00;102068.53;4396779;32;20142;-70
2021/11/10 02:54:59;;;;;;;3.03;2.92;;;;;;;1.63;100.00;102072.03;4399892;32;20065;-70
2021/11/10 02:57:26;;;;;;;3.30;3.20;;;;;;;1.64;100.00;102068.56;4398596;32;20061;-71
2021/11/10 02:59:51;;;;;;;3.80;3.70;;;;;;;1.61;100.00;102071.16;4401459;32;20078;-70
2021/11/10 03:02:27;;;;;;;3.08;2.97;;;;;;;1.60;100.00;102065.09;4394648;32;20081;-70
2021/11/10 03:04:53;;;;;;;4.05;3.85;;;;;;;1.62;100.00;102078.03;4394139;32;20138;-71
2021/11/10 03:07:18;;;;;;;2.90;2.80;;;;;;;1.56;100.00;102065.91;4390698;32;20520;-71
2021/11/10 03:09:44;;;;;;;4.78;4.57;;;;;;;1.65;100.00;102068.59;4389247;32;20518;-71
2021/11/10 03:12:10;;;;;;;2.70;2.60;;;;;;;1.60;100.00;102059.91;4408425;32;20084;-71
2021/11/10 03:14:37;;;;;;;3.05;2.95;;;;;;;1.64;100.00;102078.91;4396740;32;20084;-70
2021/11/10 03:17:03;;;;;;;3.00;2.90;;;;;;;1.59;100.00;102072.00;4384118;32;20477;-71
2021/11/10 03:19:29;;;;;;;2.87;2.78;;;;;;;0.30;100.00;101859.03;4396325;32;20413;-71
2021/11/10 03:21:54;;;;;;;3.00;2.90;;;;;;;1.57;100.00;102091.81;4376412;32;20073;-71
2021/11/10 03:24:20;;;;;;;2.90;2.80;;;;;;;1.56;100.00;102060.75;4393783;32;20700;-71
2021/11/10 03:26:45;;;;;;;2.72;2.62;;;;;;;1.44;100.00;102037.37;4394405;32;20146;-71
2021/11/10 03:29:11;;;;;;;2.87;2.78;;;;;;;1.59;100.00;102066.81;4389681;32;20073;-71
2021/11/10 03:31:37;;;;;;;5.22;4.90;;;;;;;1.60;100.00;102067.66;4376232;32;20069;-72
2021/11/10 03:34:03;;;;;;;2.90;2.80;;;;;;;1.51;100.00;102055.56;4421377;32;20254;-71
2021/11/10 03:36:29;;;;;;;3.00;2.90;;;;;;;-0.13;100.00;101796.69;4398642;32;20108;-71
2021/11/10 03:38:54;;;;;;;3.80;3.67;;;;;;;1.56;100.00;102079.75;4396742;32;20073;-71
2021/11/10 03:41:20;;;;;;;2.87;2.78;;;;;;;1.55;100.00;102069.38;4385246;32;20080;-72
2021/11/10 03:43:46;;;;;;;4.68;4.47;;;;;;;1.56;100.00;102071.09;4383015;32;20065;-71
2021/11/10 03:46:11;;;;;;;3.45;3.35;;;;;;;1.58;100.00;102075.44;4409908;32;20119;-71
2021/11/10 03:48:36;;;;;;;3.58;3.47;;;;;;;1.58;100.00;102071.97;4384104;32;20262;-71
2021/11/10 03:51:02;;;;;;;3.45;3.35;;;;;;;0.49;100.00;101890.19;4385995;32;20061;-71
2021/11/10 03:53:27;;;;;;;3.20;3.10;;;;;;;1.54;100.00;102071.09;4401657;32;20377;-71
2021/11/10 03:55:53;;;;;;;2.80;2.70;;;;;;;1.52;100.00;102067.63;4371343;32;20397;-71
2021/11/10 03:58:18;;;;;;;2.85;2.75;;;;;;;1.52;100.00;102064.16;4397826;32;20564;-71
2021/11/10 04:00:43;;;;;;;4.43;4.22;;;;;;;1.44;100.00;102052.91;4381860;32;20192;-70
2021/11/10 04:03:09;;;;;;;3.03;2.92;;;;;;;1.48;100.00;102065.84;4388583;32;20104;-70
2021/11/10 04:05:34;;;;;;;3.35;3.22;;;;;;;0.49;100.00;101898.78;4380398;32;20145;-69
2021/11/10 04:07:59;;;;;;;2.70;2.60;;;;;;;1.43;100.00;102061.53;4396910;32;20056;-73
2021/11/10 04:10:25;;;;;;;3.65;3.45;;;;;;;1.44;100.00;102061.53;4393508;32;20350;-70
2021/11/10 04:12:50;;;;;;;4.57;4.37;;;;;;;1.31;100.00;102045.06;4391160;32;20114;-71
2021/11/10 04:15:16;;;;;;;3.00;2.90;;;;;;;1.39;100.00;102060.63;4381877;32;20103;-70
2021/11/10 04:17:41;;;;;;;4.35;4.15;;;;;;;1.35;100.00;102057.16;4392237;32;20080;-70
2021/11/10 04:20:07;;;;;;;2.70;2.60;;;;;;;1.16;100.00;102035.47;4391244;32;20064;-71
2021/11/10 04:22:33;;;;;;;3.10;3.00;;;;;;;1.20;100.00;102036.34;4386075;32;20072;-70
2021/11/10 04:24:58;;;;;;;3.03;2.92;;;;;;;1.35;100.00;102082.16;4396238;32;20087;-70
2021/11/10 04:27:23;;;;;;;3.42;3.22;;;;;;;1.27;100.00;102065.72;4377623;32;20072;-71
2021/11/10 04:29:49;;;;;;;4.75;4.55;;;;;;;1.21;100.00;102060.50;4377963;32;20138;-71
2021/11/10 04:32:15;;;;;;;2.70;2.60;;;;;;;1.18;100.00;102063.91;4381778;32;20128;-70
2021/11/10 04:34:40;;;;;;;2.80;2.70;;;;;;;1.11;100.00;102075.91;4376674;32;20069;-71
2021/11/10 04:37:06;;;;;;;2.92;2.83;;;;;;;1.07;100.00;102079.31;4398236;32;20147;-71
2021/11/10 04:39:32;;;;;;;2.80;2.70;;;;;;;0.94;100.00;102075.78;4396953;32;20072;-70
2021/11/10 04:41:58;;;;;;;2.80;2.70;;;;;;;0.93;100.00;102055.06;4396343;32;20088;-71
2021/11/10 04:44:23;;;;;;;2.60;2.50;;;;;;;0.91;100.00;102056.78;4389090;32;20079;-70
2021/11/10 04:46:49;;;;;;;3.67;3.58;;;;;;;0.10;100.00;101917.31;4383211;32;20146;-71
2021/11/10 04:49:16;;;;;;;2.90;2.80;;;;;;;0.83;100.00;102051.53;4381871;32;20061;-71
2021/11/10 04:51:42;;;;;;;4.37;4.18;;;;;;;0.80;100.00;102041.13;4389250;32;20559;-71
2021/11/10 04:54:09;;;;;;;2.80;2.70;;;;;;;0.62;100.00;102018.56;4378960;32;20061;-71
2021/11/10 04:56:36;;;;;;;3.00;2.90;;;;;;;0.78;100.00;102048.91;4399071;32;20101;-70
2021/11/10 04:59:01;;;;;;;2.80;2.70;;;;;;;0.72;100.00;102043.69;4393205;32;20515;-72
2021/11/10 05:01:26;;;;;;;2.80;2.70;;;;;;;0.26;100.00;101967.41;4396551;32;20069;-71
2021/11/10 05:03:55;;;;;;;4.12;3.92;;;;;;;0.64;100.00;102037.53;4390899;32;21202;-71
2021/11/10 05:06:21;;;;;;;2.80;2.70;;;;;;;0.61;100.00;102034.94;4393853;32;20065;-71
2021/11/10 05:08:47;;;;;;;4.68;4.40;;;;;;;0.26;100.00;101981.19;4385107;32;20287;-70
2021/11/10 05:11:12;;;;;;;2.78;2.67;;;;;;;-0.42;100.00;101869.47;4384749;32;20096;-72
2021/11/10 05:13:37;;;;;;;4.12;3.92;;;;;;;0.04;100.00;101948.22;4393430;32;20111;-70
2021/11/10 05:16:03;;;;;;;4.05;3.80;;;;;;;0.44;100.00;102019.28;4385464;32;20602;-70
2021/11/10 05:18:29;;;;;;;2.90;2.80;;;;;;;0.17;100.00;102000.00;4392794;32;20065;-70
2021/11/10 05:20:54;;;;;;;3.65;3.55;;;;;;;-1.18;100.00;101781.72;4390808;32;20402;-71
2021/11/10 05:23:20;;;;;;;2.60;2.50;;;;;;;0.30;100.00;102037.19;4380064;32;20313;-71
2021/11/10 05:25:46;;;;;;;4.25;4.05;;;;;;;0.28;100.00;102048.31;4386756;32;20077;-70
2021/11/10 05:28:11;;;;;;;2.70;2.60;;;;;;;0.25;100.00;102049.16;4388110;32;20534;-72
2021/11/10 05:30:36;;;;;;;3.90;3.70;;;;;;;0.12;100.00;102024.91;4396120;32;20580;-72
2021/11/10 05:33:03;;;;;;;2.65;2.55;;;;;;;0.22;100.00;102046.56;4385647;32;20442;-72
2021/11/10 05:35:28;;;;;;;2.70;2.60;;;;;;;0.22;100.00;102046.56;4396212;32;20080;-73
2021/11/10 05:37:54;;;;;;;3.25;3.15;;;;;;;0.17;100.00;102030.13;4387506;32;20085;-72
2021/11/10 05:40:19;;;;;;;2.80;2.70;;;;;;;0.17;100.00;102024.97;4392174;32;20084;-72
2021/11/10 05:42:44;;;;;;;4.62;4.43;;;;;;;0.19;100.00;102037.03;4380566;32;20763;-72
2021/11/10 05:45:10;;;;;;;2.90;2.80;;;;;;;0.17;100.00;102031.00;4382216;32;20084;-72
2021/11/10 05:47:35;;;;;;;3.17;3.08;;;;;;;0.14;100.00;102030.06;4404018;32;20057;-72
2021/11/10 05:50:02;;;;;;;2.70;2.60;;;;;;;0.13;100.00;102023.19;4385759;32;20530;-73
2021/11/10 05:52:28;;;;;;;2.80;2.70;;;;;;;0.14;100.00;102014.59;4405807;32;20360;-70
2021/11/10 05:54:54;;;;;;;2.80;2.70;;;;;;;0.12;100.00;102021.44;4380079;32;20309;-70
2021/11/10 05:57:20;;;;;;;2.50;2.40;;;;;;;0.04;100.00;102033.41;4382293;32;20258;-72
2021/11/10 05:59:45;;;;;;;4.43;4.22;;;;;;;-0.50;100.00;101978.50;4391963;32;20462;-70
2021/11/10 06:02:11;;;;;;;6.47;3.55;;;;;;;-0.15;100.00;102020.25;4383294;32;20314;-71
2021/11/10 06:04:37;;;;;;;3.15;3.05;;;;;;;-0.19;100.00;102025.38;4390298;32;20083;-71
2021/11/10 06:07:04;;;;;;;2.65;2.55;;;;;;;-0.22;100.00;102032.22;4379082;32;20594;-71
2021/11/10 06:09:30;;;;;;;2.70;2.60;;;;;;;-0.26;100.00;102027.88;4409782;32;20166;-71
2021/11/10 06:11:55;;;;;;;2.65;2.55;;;;;;;-0.17;100.00;102019.38;4379756;32;20073;-70
2021/11/10 06:14:20;;;;;;;2.70;2.60;;;;;;;-0.16;100.00;102040.88;4383975;32;20064;-71
2021/11/10 06:16:46;;;;;;;4.95;4.75;;;;;;;-0.13;100.00;102026.31;4382513;32;20065;-71
2021/11/10 06:19:11;;;;;;;2.60;2.50;;;;;;;-1.21;100.00;101854.63;4402010;32;20088;-71
2021/11/10 06:21:36;;;;;;;3.25;3.15;;;;;;;-0.18;100.00;102025.41;4393324;32;20083;-70
2021/11/10 06:24:02;;;;;;;2.80;2.70;;;;;;;-0.17;100.00;102024.53;4381065;32;20072;-70
2021/11/10 06:26:27;;;;;;;3.00;2.80;;;;;;;-0.32;100.00;101999.41;4399378;32;20578;-71
2021/11/10 06:28:53;;;;;;;2.80;2.70;;;;;;;-0.25;100.00;102019.25;4373917;32;20955;-70
2021/11/10 06:31:18;;;;;;;2.60;2.50;;;;;;;-0.59;100.00;101966.34;4383407;32;20060;-70
2021/11/10 06:33:44;;;;;;;4.37;4.18;;;;;;;-0.61;100.00;101968.03;4379164;32;20072;-70
2021/11/10 06:37:16;;;;;;;15.05;14.35;;;;;;;-0.12;100.00;102047.81;4368524;32;20345;-69
2021/11/10 06:39:41;;;;;;;4.32;4.12;;;;;;;-0.31;100.00;101998.56;4404120;32;20072;-70
2021/11/10 06:42:07;;;;;;;2.65;2.55;;;;;;;0.07;100.00;102033.44;4377475;32;20147;-71
2021/11/10 06:44:32;;;;;;;2.58;2.47;;;;;;;-0.24;100.00;101977.16;4394042;32;20079;-71
2021/11/10 06:46:59;;;;;;;2.50;2.40;;;;;;;0.26;100.00;102035.41;4391607;32;20096;-70
2021/11/10 06:49:28;;;;;;;2.60;2.50;;;;;;;0.41;100.00;102031.28;4389827;32;20417;-71
2021/11/10 06:51:54;;;;;;;3.20;3.10;;;;;;;0.43;100.00;102024.41;4394312;32;20528;-71
2021/11/10 06:54:20;;;;;;;2.70;2.60;;;;;;;0.44;100.00;102028.72;4391209;32;20101;-71
2021/11/10 06:56:46;;;;;;;3.83;3.70;;;;;;;0.34;100.00;102022.56;4377339;32;20176;-70
2021/11/10 06:59:11;;;;;;;3.20;3.10;;;;;;;0.34;100.00;102017.41;4389973;32;20076;-70
2021/11/10 07:01:36;;;;;;;3.83;3.67;;;;;;;0.03;100.00;101980.06;4373806;32;20088;-71
2021/11/10 07:04:02;;;;;;;3.35;3.25;;;;;;;-0.16;100.00;101966.06;4390644;32;20179;-71
2021/11/10 07:06:27;;;;;;;3.10;2.95;;;;;;;0.14;100.00;102019.75;4383465;32;20133;-70
2021/11/10 07:08:52;;;;;;;4.15;3.95;;;;;;;0.23;100.00;102037.09;4396549;32;20566;-70
2021/11/10 07:11:18;;;;;;;3.83;3.62;;;;;;;0.22;100.00;102036.22;4369185;32;20080;-70
2021/11/10 07:13:44;;;;;;;4.15;3.95;;;;;;;0.22;100.00;102053.41;4380333;32;20108;-70
2021/11/10 07:16:09;;;;;;;2.67;2.58;;;;;;;0.14;100.00;102055.91;4396972;32;20091;-70
2021/11/10 07:18:34;;;;;;;6.15;5.45;;;;;;;-0.42;100.00;101956.28;4393287;32;20061;-77
2021/11/10 07:21:00;;;;;;;2.60;2.50;;;;;;;0.06;100.00;102058.41;4400144;32;20540;-74
2021/11/10 07:23:25;;;;;;;2.60;2.50;;;;;;;0.20;100.00;102112.75;4385086;32;20073;-74
2021/11/10 07:25:51;;;;;;;4.07;3.87;;;;;;;0.10;100.00;102056.69;4379429;32;20064;-76
2021/11/10 07:28:16;;;;;;;2.65;2.55;;;;;;;0.41;100.00;102095.84;4385000;32;20082;-73
2021/11/10 07:30:42;;;;;;;3.65;3.55;;;;;;;0.52;100.00;102091.66;4365695;32;20239;-74
2021/11/10 07:33:08;;;;;;;2.70;2.60;;;;;;;0.62;100.00;102079.72;4392728;32;20087;-75
2021/11/10 07:35:34;;;;;;;2.70;2.60;;;;;;;0.70;100.00;102091.88;4379789;32;20521;-77
2021/11/10 07:37:59;;;;;;;3.00;2.90;;;;;;;0.32;100.00;102025.16;4379326;32;20088;-76
2021/11/10 07:40:25;;;;;;;2.67;2.58;;;;;;;0.19;100.00;101997.47;4391966;32;20599;-74
2021/11/10 07:42:51;;;;;;;3.92;3.78;;;;;;;-0.44;100.00;101896.94;4404601;32;20128;-73
2021/11/10 07:45:22;;;;;;;2.80;2.70;;;;;;;0.94;100.00;102116.22;4383269;32;20108;-73
2021/11/10 07:47:48;;;;;;;3.75;3.62;;;;;;;0.13;100.00;101966.41;4400464;32;20069;-75
2021/11/10 07:50:15;;;;;;;2.50;2.40;;;;;;;0.74;100.00;102060.06;4374575;32;20192;-78
2021/11/10 07:52:40;;;;;;;2.60;2.50;;;;;;;1.01;100.00;102092.19;4382503;32;20061;-74
2021/11/10 07:55:06;;;;;;;2.58;2.47;;;;;;;0.54;100.00;101991.78;4379491;32;20092;-74
2021/11/10 07:57:33;;;;;;;2.90;2.80;;;;;;;1.31;100.00;102116.62;4398006;32;20397;-70
2021/11/10 07:59:59;;;;;;;4.32;2.92;;;;;;;1.39;100.00;102141.69;4368279;32;20281;-76
2021/11/10 08:02:24;;;;;;;2.80;2.70;;;;;;;1.45;100.00;102109.84;4393202;32;20081;-74
2021/11/10 08:04:50;;;;;;;4.10;3.92;;;;;;;1.42;100.00;102091.69;4381865;32;20084;-73
2021/11/10 08:07:15;;;;;;;2.70;2.60;;;;;;;1.66;100.00;102121.19;4393305;32;20064;-75
2021/11/10 08:09:40;;;;;;;4.25;4.05;;;;;;;1.42;100.00;102057.19;4382209;32;20065;-70
2021/11/10 08:12:06;;;;;;;2.90;2.80;;;;;;;1.86;100.00;102114.44;4361678;32;20468;-73
2021/11/10 08:14:32;;;;;;;2.78;2.67;;;;;;;1.96;100.00;102105.88;4365299;32;20457;-73
2021/11/10 08:16:57;;;;;;;2.70;2.60;;;;;;;2.06;100.00;102118.88;4379042;32;20469;-71
2021/11/10 08:19:25;;;;;;;3.10;3.00;;;;;;;2.12;100.00;102117.19;4379745;32;20081;-71
2021/11/10 08:21:50;;;;;;;4.37;4.18;;;;;;;2.14;100.00;102104.25;4380467;32;20072;-71
2021/11/10 08:24:15;;;;;;;3.20;3.10;;;;;;;2.31;100.00;102112.97;4378756;32;20650;-70
2021/11/10 08:26:41;;;;;;;4.45;4.25;;;;;;;2.44;100.00;102113.03;4379095;32;20105;-68
2021/11/10 08:29:06;;;;;;;2.90;2.80;;;;;;;2.27;100.00;102074.97;4383297;32;20084;-70
2021/11/10 08:31:31;;;;;;;3.30;3.20;;;;;;;2.46;100.00;102099.22;4367854;32;20073;-76
2021/11/10 08:33:57;;;;;;;2.90;2.80;;;;;;;2.63;100.00;102117.44;4377834;32;20090;-69
2021/11/10 08:36:23;;;;;;;2.80;2.70;;;;;;;2.66;100.00;102120.03;4376045;32;20208;-69
2021/11/10 08:38:48;;;;;;;4.40;4.20;;;;;;;2.79;100.00;102114.03;4376505;32;20084;-71
2021/11/10 08:41:14;;;;;;;2.90;2.80;;;;;;;2.84;100.00;102110.59;4366993;32;20081;-71
2021/11/10 08:43:39;;;;;;;4.93;4.62;;;;;;;2.93;100.00;102113.22;4378044;32;20120;-68
2021/11/10 08:46:07;;;;;;;2.90;2.80;;;;;;;3.02;100.00;102112.34;4379577;32;20140;-71
2021/11/10 08:48:32;;;;;;;2.92;2.83;;;;;;;3.18;100.00;102117.56;4373489;32;20472;-75
2021/11/10 08:50:58;;;;;;;3.20;3.10;;;;;;;3.33;100.00;102118.47;4378940;32;20079;-74
2021/11/10 08:53:24;;;;;;;3.53;3.40;;;;;;;3.48;100.00;102115.84;4377277;32;20069;-73
2021/11/10 08:55:51;;;;;;;4.35;4.15;;;;;;;3.35;100.00;102081.25;4394515;32;20135;-74
2021/11/10 08:58:16;;;;;;;2.90;2.80;;;;;;;3.71;100.00;102114.97;4390179;32;20081;-74
2021/11/10 09:00:42;;;;;;;4.60;4.40;;;;;;;3.81;100.00;102121.91;4391496;32;20077;-74
2021/11/10 09:03:07;;;;;;;3.00;2.90;;;;;;;3.55;99.43;102054.44;4398579;32;20083;-74
2021/11/10 09:05:33;;;;;;;3.08;2.97;;;;;;;4.12;99.31;102103.66;4395445;32;20068;-77
2021/11/10 09:08:00;;;;;;;3.50;3.40;;;;;;;4.30;98.57;102094.94;4388253;32;20261;-73
2021/11/10 09:10:25;;;;;;;3.12;3.03;;;;;;;4.56;98.34;102141.63;4387853;32;20127;-73
2021/11/10 09:12:52;;;;;;;3.70;3.60;;;;;;;4.75;96.34;102101.69;4380091;32;20576;-74
2021/11/10 09:15:18;;;;;;;3.20;3.10;;;;;;;4.77;94.44;102097.31;4381357;32;20077;-72
2021/11/10 09:17:43;;;;;;;5.10;4.85;;;;;;;4.71;93.39;102047.06;4387525;32;20092;-71
2021/11/10 09:20:14;;;;;;;3.15;3.05;;;;;;;5.25;93.60;102106.53;4384663;32;20167;-74
2021/11/10 09:22:39;;;;;;;4.47;4.28;;;;;;;5.23;92.65;102056.25;4389602;32;20602;-71
2021/11/10 09:25:06;;;;;;;3.35;3.25;;;;;;;5.50;90.47;102094.22;4390961;32;20199;-71
2021/11/10 09:27:33;;;;;;;3.40;3.30;;;;;;;5.84;90.72;102099.97;4393644;32;20125;-72
2021/11/10 09:29:59;;;;;;;4.40;4.18;;;;;;;6.03;88.98;102103.25;4383407;32;20072;-71
2021/11/10 09:32:26;;;;;;;3.35;3.25;;;;;;;6.24;88.17;102089.16;4393537;32;20599;-72
2021/11/10 09:34:52;;;;;;;4.15;3.95;;;;;;;6.50;87.44;102096.66;4368520;32;20379;-71
2021/11/10 09:37:17;;;;;;;3.60;3.40;;;;;;;5.57;84.84;101900.56;4389453;32;20515;-72
2021/11/10 09:39:42;;;;;;;4.78;4.57;;;;;;;6.52;83.49;102057.50;4397236;32;20277;-74
2021/11/10 09:42:08;;;;;;;3.80;3.62;;;;;;;5.92;82.67;101904.47;4391323;32;20093;-72
2021/11/10 09:44:34;;;;;;;3.78;3.62;;;;;;;7.21;82.45;102069.53;4381376;32;20762;-74
2021/11/10 09:47:01;;;;;;;3.62;3.53;;;;;;;7.63;80.75;102076.69;4382276;32;20065;-71
2021/11/10 09:49:26;;;;;;;3.70;3.60;;;;;;;7.86;79.51;102063.16;4378444;32;20572;-73
2021/11/10 09:51:51;;;;;;;3.65;3.53;;;;;;;8.07;76.87;102067.13;4391106;32;20074;-72
2021/11/10 09:54:17;;;;;;;3.80;3.60;;;;;;;8.26;76.33;102060.66;4381084;32;20709;-73
2021/11/10 09:56:43;;;;;;;4.32;4.12;;;;;;;8.47;75.01;102066.34;4386943;32;20148;-73
2021/11/10 09:59:08;;;;;;;3.60;3.50;;;;;;;7.52;73.43;101901.84;4376494;32;20099;-71
2021/11/10 10:01:34;;;;;;;4.87;4.47;;;;;;;8.68;73.02;102068.50;4393619;32;20085;-72
2021/11/10 10:04:00;;;;;;;3.90;3.70;;;;;;;8.76;71.44;102061.34;4370649;32;20142;-71
2021/11/10 10:06:27;;;;;;;3.85;3.72;;;;;;;8.91;71.72;102067.13;4381851;32;20077;-73
2021/11/10 10:08:52;;;;;;;4.25;4.05;;;;;;;9.10;72.29;102062.28;4389386;32;20234;-72
2021/11/10 10:11:19;;;;;;;4.78;4.57;;;;;;;9.08;70.78;102078.06;4365946;32;20081;-73
2021/11/10 10:13:44;;;;;;;4.28;4.07;;;;;;;9.17;70.05;102064.72;4366967;32;20070;-74
2021/11/10 10:16:09;;;;;;;5.18;4.97;;;;;;;9.25;71.22;102064.56;4362846;32;20125;-72
2021/11/10 10:18:35;;;;;;;4.05;3.85;;;;;;;9.11;69.47;102045.69;4369635;32;20069;-74
2021/11/10 10:21:10;;;;;;;5.47;4.43;;;;;;;8.31;69.70;101895.78;4361822;32;20077;-71
2021/11/10 10:23:38;;;;;;;3.97;3.78;;;;;;;9.06;69.06;102063.25;4395198;32;20172;-73
2021/11/10 10:26:17;;;;;;;4.65;4.45;;;;;;;9.03;70.52;102071.22;4362920;32;20707;-72
2021/11/10 10:28:44;;;;;;;4.20;4.00;;;;;;;8.96;69.82;102073.09;4378044;32;20666;-69
2021/11/10 10:31:12;;;;;;;5.72;5.47;;;;;;;8.77;71.64;102052.59;4361485;32;20104;-69
2021/11/10 10:33:39;;;;;;;3.80;3.70;;;;;;;8.84;70.01;102074.25;4382633;32;20681;-69
2021/11/10 10:36:13;;;;;;;5.35;5.15;;;;;;;7.50;70.38;101862.69;4362385;32;21817;-70
2021/11/10 10:38:41;;;;;;;3.80;3.70;;;;;;;8.84;70.92;102071.66;4391408;32;20092;-70
2021/11/10 10:41:08;;;;;;;5.72;5.43;;;;;;;8.74;69.64;102049.16;4369420;32;20514;-72
2021/11/10 10:43:38;;;;;;;4.20;4.00;;;;;;;8.77;70.01;102068.28;4370880;32;20075;-70
2021/11/10 10:46:03;;;;;;;5.10;4.78;;;;;;;8.53;70.32;102061.00;4384763;32;20080;-70
2021/11/10 10:48:29;;;;;;;4.10;3.90;;;;;;;8.45;71.47;102052.44;4382878;32;20077;-70
2021/11/10 10:50:56;;;;;;;4.40;4.20;;;;;;;8.64;72.07;102076.44;4368305;32;20070;-71
2021/11/10 10:53:42;;;;;;;5.40;4.95;;;;;;;8.50;71.02;102050.56;4387575;32;20065;-70
2021/11/10 10:56:26;;;;;;;5.47;5.20;;;;;;;8.59;71.75;102068.69;4359964;32;20626;-70
2021/11/10 10:58:53;;;;;;;3.70;3.60;;;;;;;8.51;72.43;102047.09;4380422;32;20081;-70
2021/11/10 11:01:27;;;;;;;3.83;3.72;;;;;;;8.55;71.22;102033.87;4365322;32;20633;-70
2021/11/10 11:03:54;;;;;;;4.00;3.80;;;;;;;8.68;71.97;102044.97;4383209;32;20097;-70
2021/11/10 11:06:31;;;;;;;4.10;3.90;;;;;;;9.00;72.15;102066.91;4366446;32;20088;-70
2021/11/10 11:08:58;;;;;;;4.18;3.97;;;;;;;9.12;71.87;102057.88;4391319;32;20124;-71
2021/11/10 11:11:55;;;;;;;4.00;3.80;;;;;;;9.20;70.93;102069.06;4385212;32;20847;-70
2021/11/10 11:14:36;;;;;;;4.10;3.90;;;;;;;9.16;70.80;102078.75;4381781;32;20142;-69
2021/11/10 11:17:04;;;;;;;4.87;4.68;;;;;;;9.13;70.94;102085.81;4383825;32;20111;-70
2021/11/10 11:19:33;;;;;;;3.90;3.70;;;;;;;9.12;71.63;102084.97;4389304;32;20074;-69
2021/11/10 11:21:58;;;;;;;4.78;4.57;;;;;;;9.01;71.01;102062.53;4365951;32;20796;-70
2021/11/10 11:24:34;;;;;;;3.85;3.70;;;;;;;9.02;71.54;102080.84;4382114;32;20107;-70